Springfield Branson National Airport Springfield US
ICAO: KSGF
IATA: SGF
Category: Large
Scheduled Services: Yes

Elevation: 1268 ft
TransAlt. 18000 ft.

Airport Communications:
APP/DEP:124.95
ATIS:119.05
CLNC DEL:123.675
GND:121.9
ARNG OPS:134.95
COLUMBIA RDO:122.55
TWR:119.9
UNICOM:122.95

KSGF Zoom In..

Runways:

(A) RW 02 length 7003 ft width 150 ft
ILS 109.90 / hdg 19

(B) RW 14 length 8000 ft width 150 ft
ILS 109.70 / hdg 139

(C) RW 20 length 7003 ft width 150 ft
---- / hdg 199

(D) RW 32 length 8000 ft width 150 ft
---- / hdg 319

Location; KSGF
Day. 05 / Time. 17.52 Zulu
* Altimeter: 30.12
* Temperature: 23° c. 73.4°f.
* Wind from: 000° Speed 00 kn.
Dewpoint: 16° c.
Visibility: 10 Statute Miles.
Clouds: Scattered 3600 ft.
Clouds: Scattered 4800 ft.

KSGF 051752Z 00000KT 10SM SCT036 SCT048 23/16 A3012 RMK AO2 SLP191 T02330156 10244 20144 58004

Going to: --> -->


Wind - Calm.

 
 
jpsmedia worldairports.se 2020   terms of use